DLH452 EDDM-KLAX
Flight info
| Callsign | DLH452 |
|---|---|
| Flight time | N/A |
| Altitude | 34000 |
| Route | INPUD2N/26R INPUD Y102 UPALA Z109 BAMAS L604 GASKA DCT MASEK DCT PREXA DCT AMGOD DCT MIMVA L602 NALAX L46 ESHIN N110 USEKA/N0483F380 N110 ERKIT DCT AMLAD DCT SUNOT/M085F380 DCT 58N020W 59N030W 5930N04000W 60N050W DCT PIDSO DCT MIBNO/N0477F380 DCT TUNNI DCT KELMU/N0491F400 DCT 5730N09000W DCT KENRU Q827 ITREK/N0466F380 DCT HLN DCT BAM DCT MVA/N0448F360 DCT FRA/N0446F350 DCT REBRG IRNMN2 |
| Aircraft | A388/J-SADE2E3GHIJ3J4J5LM1OP2RWXYZ/LB1D1 |
Departure
| Time | 2026-05-05 11:28 |
|---|---|
| Airport | Munich Airport (EDDM) |
Arrival
| Time | N/A |
|---|---|
| Airport | Los Angeles International Airport (KLAX) |
| Time | Latitude | Longitude | Altitude | Speed | Heading |
|---|---|---|---|---|---|
| 2026-05-05 10:56 | 48.35468 | 11.79728 | 1478 ft | 0 kts | 83° |
| 2026-05-05 11:13 | 48.35468 | 11.79726 | 1490 ft | 2 kts | 83° |
| 2026-05-05 11:13 | 48.35465 | 11.79688 | 1486 ft | 4 kts | 83° |
| 2026-05-05 11:13 | 48.35463 | 11.79654 | 1486 ft | 2 kts | 83° |
| 2026-05-05 11:13 | 48.35457 | 11.79620 | 1490 ft | 4 kts | 60° |
| 2026-05-05 11:14 | 48.35443 | 11.79598 | 1478 ft | 4 kts | 24° |
| 2026-05-05 11:14 | 48.35425 | 11.79595 | 1490 ft | 3 kts | 353° |
| 2026-05-05 11:14 | 48.35398 | 11.79600 | 1478 ft | 4 kts | 353° |
| 2026-05-05 11:14 | 48.35389 | 11.79601 | 1490 ft | 1 kts | 353° |
| 2026-05-05 11:19 | 48.35392 | 11.79601 | 1490 ft | 2 kts | 354° |
| 2026-05-05 11:19 | 48.35417 | 11.79597 | 1476 ft | 5 kts | 356° |
| 2026-05-05 11:19 | 48.35462 | 11.79590 | 1477 ft | 8 kts | 353° |
| 2026-05-05 11:19 | 48.35535 | 11.79577 | 1481 ft | 13 kts | 353° |
| 2026-05-05 11:20 | 48.35639 | 11.79558 | 1477 ft | 16 kts | 353° |
| 2026-05-05 11:20 | 48.35756 | 11.79538 | 1478 ft | 17 kts | 353° |
| 2026-05-05 11:20 | 48.35841 | 11.79523 | 1483 ft | 9 kts | 353° |
| 2026-05-05 11:20 | 48.35892 | 11.79485 | 1475 ft | 8 kts | 299° |
| 2026-05-05 11:21 | 48.35900 | 11.79405 | 1476 ft | 8 kts | 286° |
| 2026-05-05 11:21 | 48.35935 | 11.79349 | 1476 ft | 8 kts | 341° |
| 2026-05-05 11:21 | 48.35995 | 11.79333 | 1481 ft | 10 kts | 352° |
| 2026-05-05 11:21 | 48.36072 | 11.79319 | 1483 ft | 13 kts | 353° |
| 2026-05-05 11:22 | 48.36165 | 11.79303 | 1477 ft | 12 kts | 359° |
| 2026-05-05 11:22 | 48.36204 | 11.79354 | 1480 ft | 8 kts | 81° |
| 2026-05-05 11:22 | 48.36212 | 11.79456 | 1486 ft | 11 kts | 83° |
| 2026-05-05 11:22 | 48.36218 | 11.79540 | 1488 ft | 13 kts | 84° |
| 2026-05-05 11:23 | 48.36229 | 11.79691 | 1481 ft | 15 kts | 83° |
| 2026-05-05 11:23 | 48.36243 | 11.79859 | 1487 ft | 17 kts | 84° |
| 2026-05-05 11:23 | 48.36257 | 11.80047 | 1488 ft | 19 kts | 83° |
| 2026-05-05 11:23 | 48.36274 | 11.80253 | 1480 ft | 21 kts | 83° |
| 2026-05-05 11:24 | 48.36292 | 11.80490 | 1480 ft | 25 kts | 83° |
| 2026-05-05 11:24 | 48.36312 | 11.80757 | 1481 ft | 26 kts | 83° |
| 2026-05-05 11:24 | 48.36332 | 11.81020 | 1486 ft | 25 kts | 83° |
| 2026-05-05 11:24 | 48.36352 | 11.81272 | 1477 ft | 24 kts | 83° |
| 2026-05-05 11:25 | 48.36370 | 11.81515 | 1487 ft | 23 kts | 83° |
| 2026-05-05 11:25 | 48.36389 | 11.81752 | 1482 ft | 23 kts | 83° |
| 2026-05-05 11:25 | 48.36394 | 11.81913 | 1477 ft | 14 kts | 98° |
| 2026-05-05 11:25 | 48.36395 | 11.82063 | 1483 ft | 15 kts | 85° |
| 2026-05-05 11:26 | 48.36404 | 11.82217 | 1483 ft | 9 kts | 78° |
| 2026-05-05 11:26 | 48.36440 | 11.82294 | 1475 ft | 9 kts | 20° |
| 2026-05-05 11:26 | 48.36516 | 11.82290 | 1482 ft | 14 kts | 346° |
| 2026-05-05 11:26 | 48.36593 | 11.82212 | 1475 ft | 14 kts | 310° |
| 2026-05-05 11:27 | 48.36655 | 11.82096 | 1475 ft | 15 kts | 308° |
| 2026-05-05 11:27 | 48.36677 | 11.81957 | 1478 ft | 14 kts | 263° |
| 2026-05-05 11:27 | 48.36653 | 11.81647 | 1477 ft | 61 kts | 263° |
| 2026-05-05 11:27 | 48.36576 | 11.80641 | 1481 ft | 128 kts | 263° |
| 2026-05-05 11:28 | 48.36456 | 11.79057 | 1488 ft | 173 kts | 262° |
| 2026-05-05 11:28 | 48.36286 | 11.77168 | 1787 ft | 179 kts | 263° |
| 2026-05-05 11:28 | 48.36144 | 11.75377 | 2493 ft | 173 kts | 264° |
| 2026-05-05 11:28 | 48.35999 | 11.73518 | 2772 ft | 188 kts | 263° |
| 2026-05-05 11:29 | 48.35842 | 11.71500 | 2936 ft | 201 kts | 265° |
| 2026-05-05 11:29 | 48.35722 | 11.69352 | 3105 ft | 213 kts | 270° |
| 2026-05-05 11:29 | 48.36126 | 11.67177 | 3185 ft | 223 kts | 303° |
| 2026-05-05 11:29 | 48.37302 | 11.65624 | 3350 ft | 235 kts | 338° |
| 2026-05-05 11:30 | 48.38891 | 11.65092 | 3988 ft | 236 kts | 351° |
| 2026-05-05 11:30 | 48.40565 | 11.64661 | 4353 ft | 253 kts | 349° |
| 2026-05-05 11:30 | 48.42368 | 11.64152 | 4609 ft | 271 kts | 348° |
| 2026-05-05 11:30 | 48.44229 | 11.63576 | 5220 ft | 274 kts | 347° |
| 2026-05-05 11:31 | 48.46110 | 11.62994 | 5859 ft | 277 kts | 348° |
| 2026-05-05 11:31 | 48.48013 | 11.62413 | 6453 ft | 281 kts | 348° |
| 2026-05-05 11:31 | 48.49935 | 11.61839 | 7062 ft | 285 kts | 348° |
| 2026-05-05 11:31 | 48.51891 | 11.61264 | 7666 ft | 288 kts | 349° |
| 2026-05-05 11:32 | 48.53864 | 11.60686 | 8254 ft | 290 kts | 349° |
| 2026-05-05 11:32 | 48.55857 | 11.60106 | 8759 ft | 294 kts | 349° |
| 2026-05-05 11:32 | 48.57859 | 11.59322 | 9342 ft | 298 kts | 339° |
| 2026-05-05 11:32 | 48.59789 | 11.58162 | 9983 ft | 301 kts | 338° |
| 2026-05-05 11:33 | 48.61799 | 11.56982 | 10240 ft | 318 kts | 338° |
| 2026-05-05 11:33 | 48.63916 | 11.55755 | 10414 ft | 336 kts | 338° |
| 2026-05-05 11:33 | 48.66150 | 11.54464 | 10646 ft | 349 kts | 338° |
| 2026-05-05 11:33 | 48.68431 | 11.53149 | 11178 ft | 353 kts | 338° |
| 2026-05-05 11:34 | 48.70734 | 11.51826 | 11712 ft | 355 kts | 338° |
| 2026-05-05 11:34 | 48.73053 | 11.50489 | 12304 ft | 358 kts | 338° |
| 2026-05-05 11:34 | 48.75384 | 11.49136 | 12857 ft | 360 kts | 338° |
| 2026-05-05 11:34 | 48.77731 | 11.47768 | 13382 ft | 363 kts | 338° |
| 2026-05-05 11:35 | 48.80104 | 11.46387 | 13898 ft | 366 kts | 338° |
| 2026-05-05 11:35 | 48.82488 | 11.45000 | 14415 ft | 368 kts | 338° |
| 2026-05-05 11:35 | 48.84887 | 11.43604 | 14916 ft | 371 kts | 337° |
| 2026-05-05 11:35 | 48.87307 | 11.42195 | 15386 ft | 374 kts | 337° |
| 2026-05-05 11:36 | 48.89747 | 11.40772 | 15874 ft | 377 kts | 337° |
| 2026-05-05 11:36 | 48.92205 | 11.39337 | 16378 ft | 379 kts | 337° |
| 2026-05-05 11:36 | 48.94678 | 11.37891 | 16823 ft | 382 kts | 337° |
| 2026-05-05 11:36 | 48.97165 | 11.36436 | 17275 ft | 384 kts | 337° |
| 2026-05-05 11:37 | 48.99699 | 11.34945 | 17712 ft | 387 kts | 337° |
| 2026-05-05 11:37 | 49.02182 | 11.33491 | 18123 ft | 389 kts | 337° |
| 2026-05-05 11:37 | 49.04724 | 11.31999 | 18530 ft | 392 kts | 337° |
| 2026-05-05 11:37 | 49.07274 | 11.30500 | 18948 ft | 394 kts | 337° |
| 2026-05-05 11:38 | 49.09873 | 11.28972 | 19371 ft | 396 kts | 337° |
| 2026-05-05 11:38 | 49.12444 | 11.27454 | 19766 ft | 398 kts | 336° |
| 2026-05-05 11:38 | 49.15033 | 11.25925 | 20166 ft | 400 kts | 337° |
| 2026-05-05 11:38 | 49.17634 | 11.24388 | 20533 ft | 402 kts | 336° |
| 2026-05-05 11:39 | 49.20254 | 11.22856 | 20932 ft | 404 kts | 339° |
| 2026-05-05 11:39 | 49.22983 | 11.21717 | 21271 ft | 409 kts | 347° |
| 2026-05-05 11:39 | 49.25793 | 11.21017 | 21636 ft | 411 kts | 349° |
| 2026-05-05 11:39 | 49.28612 | 11.20297 | 21992 ft | 413 kts | 348° |
| 2026-05-05 11:40 | 49.31462 | 11.19543 | 22364 ft | 414 kts | 348° |
| 2026-05-05 11:40 | 49.34308 | 11.18786 | 22687 ft | 417 kts | 348° |
| 2026-05-05 11:40 | 49.37173 | 11.18035 | 23041 ft | 419 kts | 348° |
| 2026-05-05 11:40 | 49.40049 | 11.17280 | 23372 ft | 421 kts | 348° |
| 2026-05-05 11:41 | 49.42938 | 11.16522 | 23713 ft | 422 kts | 348° |
| 2026-05-05 11:41 | 49.45846 | 11.15760 | 24036 ft | 424 kts | 348° |
| 2026-05-05 11:41 | 49.48758 | 11.14993 | 24360 ft | 426 kts | 348° |
| 2026-05-05 11:41 | 49.51695 | 11.14220 | 24676 ft | 428 kts | 348° |
| 2026-05-05 11:42 | 49.54641 | 11.13443 | 25005 ft | 430 kts | 348° |
| 2026-05-05 11:42 | 49.57602 | 11.12660 | 25337 ft | 432 kts | 348° |
| 2026-05-05 11:42 | 49.60575 | 11.11874 | 25670 ft | 435 kts | 348° |
| 2026-05-05 11:42 | 49.63561 | 11.11086 | 26011 ft | 437 kts | 348° |
| 2026-05-05 11:43 | 49.66555 | 11.10293 | 26361 ft | 439 kts | 348° |
| 2026-05-05 11:43 | 49.69574 | 11.09490 | 26712 ft | 441 kts | 348° |
| 2026-05-05 11:43 | 49.72600 | 11.08685 | 27052 ft | 443 kts | 347° |
| 2026-05-05 11:43 | 49.75595 | 11.07608 | 27405 ft | 441 kts | 337° |
| 2026-05-05 11:44 | 49.78347 | 11.05564 | 27748 ft | 439 kts | 323° |
| 2026-05-05 11:44 | 49.80741 | 11.02657 | 28102 ft | 437 kts | 315° |
| 2026-05-05 11:44 | 49.83009 | 10.99509 | 28458 ft | 438 kts | 315° |
| 2026-05-05 11:44 | 49.85278 | 10.96350 | 28813 ft | 440 kts | 315° |
| 2026-05-05 11:45 | 49.87572 | 10.93190 | 29153 ft | 442 kts | 315° |
| 2026-05-05 11:45 | 49.89891 | 10.90025 | 29486 ft | 445 kts | 315° |
| 2026-05-05 11:45 | 49.92219 | 10.86863 | 29816 ft | 447 kts | 315° |
| 2026-05-05 11:45 | 49.94567 | 10.83677 | 30164 ft | 449 kts | 315° |
| 2026-05-05 11:46 | 49.96924 | 10.80478 | 30506 ft | 451 kts | 315° |
| 2026-05-05 11:46 | 49.99295 | 10.77252 | 30823 ft | 454 kts | 315° |
| 2026-05-05 11:46 | 50.01669 | 10.74023 | 31168 ft | 456 kts | 315° |
| 2026-05-05 11:46 | 50.04051 | 10.70779 | 31562 ft | 455 kts | 314° |
| 2026-05-05 11:47 | 50.06439 | 10.67516 | 31881 ft | 457 kts | 314° |
| 2026-05-05 11:47 | 50.08828 | 10.64246 | 32150 ft | 460 kts | 314° |
| 2026-05-05 11:47 | 50.11212 | 10.60980 | 32444 ft | 462 kts | 314° |
| 2026-05-05 11:47 | 50.13658 | 10.57624 | 32761 ft | 463 kts | 314° |
| 2026-05-05 11:48 | 50.18518 | 10.50945 | 33319 ft | 467 kts | 313° |
| 2026-05-05 11:48 | 50.20957 | 10.47579 | 33583 ft | 469 kts | 314° |
| 2026-05-05 11:48 | 50.23411 | 10.44194 | 33822 ft | 472 kts | 314° |
| 2026-05-05 11:49 | 50.28412 | 10.37272 | 33850 ft | 487 kts | 313° |
| 2026-05-05 11:49 | 50.33445 | 10.30307 | 33851 ft | 483 kts | 313° |
| 2026-05-05 11:50 | 50.38046 | 10.22767 | 33849 ft | 477 kts | 306° |
| 2026-05-05 11:50 | 50.42417 | 10.14956 | 33852 ft | 478 kts | 306° |
| 2026-05-05 11:51 | 50.46813 | 10.07111 | 33862 ft | 478 kts | 306° |
| 2026-05-05 11:51 | 50.51198 | 9.99242 | 33867 ft | 479 kts | 306° |
| 2026-05-05 11:52 | 50.55578 | 9.91350 | 33870 ft | 479 kts | 306° |
| 2026-05-05 11:52 | 50.59950 | 9.83440 | 33880 ft | 479 kts | 306° |
| 2026-05-05 11:53 | 50.64312 | 9.75523 | 33878 ft | 478 kts | 306° |
| 2026-05-05 11:53 | 50.68665 | 9.67612 | 33865 ft | 477 kts | 306° |
| 2026-05-05 11:54 | 50.72952 | 9.59647 | 33856 ft | 473 kts | 301° |
| 2026-05-05 11:54 | 50.76597 | 9.51089 | 33854 ft | 469 kts | 298° |
| 2026-05-05 11:55 | 50.80223 | 9.42519 | 33849 ft | 469 kts | 298° |
| 2026-05-05 11:55 | 50.83846 | 9.33946 | 33847 ft | 468 kts | 298° |
| 2026-05-05 11:56 | 50.87447 | 9.25380 | 33843 ft | 468 kts | 298° |
| 2026-05-05 11:56 | 50.91045 | 9.16783 | 33853 ft | 468 kts | 298° |
| 2026-05-05 11:57 | 50.94627 | 9.08182 | 33859 ft | 468 kts | 298° |
| 2026-05-05 11:57 | 50.98203 | 8.99571 | 33862 ft | 468 kts | 298° |
| 2026-05-05 11:58 | 51.01776 | 8.90936 | 33860 ft | 468 kts | 298° |
| 2026-05-05 11:58 | 51.05343 | 8.82295 | 33866 ft | 467 kts | 297° |
| 2026-05-05 11:59 | 51.08902 | 8.73640 | 33875 ft | 467 kts | 297° |
| 2026-05-05 11:59 | 51.12453 | 8.64981 | 33871 ft | 467 kts | 297° |
| 2026-05-05 12:00 | 51.15995 | 8.56308 | 33872 ft | 467 kts | 297° |
| 2026-05-05 12:00 | 51.19526 | 8.47630 | 33879 ft | 467 kts | 297° |
| 2026-05-05 12:01 | 51.23047 | 8.38951 | 33879 ft | 466 kts | 297° |
| 2026-05-05 12:01 | 51.26555 | 8.30269 | 33881 ft | 465 kts | 297° |
| 2026-05-05 12:02 | 51.29490 | 8.22984 | 33886 ft | 465 kts | 297° |
| 2026-05-05 12:02 | 51.32983 | 8.14294 | 33881 ft | 464 kts | 297° |
| 2026-05-05 12:03 | 51.36460 | 8.05612 | 33884 ft | 463 kts | 297° |
| 2026-05-05 12:03 | 51.39927 | 7.96930 | 33841 ft | 464 kts | 297° |
| 2026-05-05 12:04 | 51.43412 | 7.88179 | 33853 ft | 466 kts | 297° |
| 2026-05-05 12:04 | 51.46896 | 7.79386 | 33870 ft | 468 kts | 296° |
| 2026-05-05 12:05 | 51.50380 | 7.70563 | 33882 ft | 469 kts | 296° |
| 2026-05-05 12:05 | 51.53869 | 7.61702 | 33903 ft | 470 kts | 296° |
| 2026-05-05 12:06 | 51.57349 | 7.52833 | 33904 ft | 470 kts | 296° |
| 2026-05-05 12:06 | 51.60832 | 7.43926 | 33891 ft | 470 kts | 296° |
| 2026-05-05 12:07 | 51.64309 | 7.35011 | 33895 ft | 470 kts | 296° |
| 2026-05-05 12:07 | 51.67779 | 7.26074 | 33882 ft | 470 kts | 296° |
| 2026-05-05 12:08 | 51.71240 | 7.17134 | 33886 ft | 471 kts | 296° |
| 2026-05-05 12:08 | 51.74705 | 7.08145 | 33894 ft | 471 kts | 296° |
| 2026-05-05 12:09 | 51.78162 | 6.99146 | 33907 ft | 473 kts | 296° |
| 2026-05-05 12:09 | 51.81632 | 6.90083 | 33901 ft | 474 kts | 296° |
| 2026-05-05 12:10 | 51.85090 | 6.80990 | 33909 ft | 475 kts | 296° |
| 2026-05-05 12:10 | 51.88530 | 6.71912 | 33918 ft | 475 kts | 296° |
| 2026-05-05 12:11 | 51.91995 | 6.62819 | 33924 ft | 474 kts | 296° |
| 2026-05-05 12:11 | 51.95438 | 6.53712 | 33918 ft | 473 kts | 296° |
| 2026-05-05 12:12 | 51.98864 | 6.44603 | 33926 ft | 473 kts | 296° |
| 2026-05-05 12:12 | 52.02275 | 6.35500 | 33925 ft | 472 kts | 295° |
| 2026-05-05 12:13 | 52.05675 | 6.26404 | 33923 ft | 471 kts | 296° |
| 2026-05-05 12:13 | 52.09069 | 6.17278 | 33925 ft | 471 kts | 295° |
| 2026-05-05 12:14 | 52.12448 | 6.08165 | 33927 ft | 471 kts | 295° |
| 2026-05-05 12:14 | 52.15802 | 5.99083 | 33924 ft | 471 kts | 295° |
| 2026-05-05 12:15 | 52.19178 | 5.89910 | 33930 ft | 471 kts | 295° |
| 2026-05-05 12:15 | 52.22544 | 5.80737 | 33932 ft | 472 kts | 295° |
| 2026-05-05 12:16 | 52.25906 | 5.71528 | 33931 ft | 472 kts | 295° |
| 2026-05-05 12:16 | 52.29255 | 5.62337 | 33935 ft | 473 kts | 295° |
| 2026-05-05 12:17 | 52.32611 | 5.53098 | 33948 ft | 473 kts | 295° |
| 2026-05-05 12:17 | 52.35956 | 5.43851 | 33957 ft | 472 kts | 295° |
| 2026-05-05 12:18 | 52.39290 | 5.34585 | 33948 ft | 472 kts | 295° |
| 2026-05-05 12:18 | 52.42619 | 5.25294 | 33950 ft | 473 kts | 295° |
| 2026-05-05 12:19 | 52.45951 | 5.15994 | 33952 ft | 473 kts | 296° |
| 2026-05-05 12:19 | 52.49265 | 5.06673 | 33953 ft | 473 kts | 296° |
| 2026-05-05 12:20 | 52.52583 | 4.97328 | 33947 ft | 473 kts | 296° |
| 2026-05-05 12:20 | 52.55915 | 4.87910 | 33956 ft | 474 kts | 296° |
| 2026-05-05 12:21 | 52.59221 | 4.78526 | 33944 ft | 474 kts | 296° |
| 2026-05-05 12:21 | 52.62518 | 4.69126 | 33958 ft | 475 kts | 295° |
| 2026-05-05 12:22 | 52.65758 | 4.59873 | 33951 ft | 475 kts | 295° |
| 2026-05-05 12:22 | 52.68556 | 4.51868 | 33960 ft | 475 kts | 295° |
| 2026-05-05 12:23 | 52.70832 | 4.45217 | 33958 ft | 474 kts | 294° |
| 2026-05-05 12:23 | 52.73641 | 4.37101 | 33961 ft | 475 kts | 296° |
| 2026-05-05 12:24 | 52.75450 | 4.32070 | 33967 ft | 475 kts | 296° |
| 2026-05-05 12:24 | 52.78371 | 4.23860 | 33961 ft | 475 kts | 296° |
| 2026-05-05 12:25 | 52.80442 | 4.17960 | 33950 ft | 475 kts | 296° |
| 2026-05-05 12:25 | 52.83695 | 4.08629 | 33969 ft | 475 kts | 296° |
| 2026-05-05 12:26 | 52.86700 | 3.99972 | 33965 ft | 475 kts | 296° |
| 2026-05-05 12:26 | 52.88573 | 3.94562 | 33958 ft | 476 kts | 296° |
| 2026-05-05 12:27 | 52.90282 | 3.89618 | 33958 ft | 477 kts | 296° |
| 2026-05-05 12:27 | 52.92083 | 3.84396 | 33968 ft | 477 kts | 296° |
| 2026-05-05 12:28 | 52.94346 | 3.77823 | 33975 ft | 477 kts | 296° |
| 2026-05-05 12:28 | 52.96504 | 3.71542 | 33973 ft | 478 kts | 296° |
| 2026-05-05 12:29 | 52.99304 | 3.63286 | 33981 ft | 478 kts | 295° |
| 2026-05-05 12:29 | 53.02322 | 3.54092 | 33985 ft | 479 kts | 295° |
| 2026-05-05 12:30 | 53.05320 | 3.44948 | 33993 ft | 480 kts | 295° |
| 2026-05-05 12:30 | 53.08388 | 3.35549 | 33986 ft | 480 kts | 294° |
| 2026-05-05 12:31 | 53.10741 | 3.25260 | 33980 ft | 475 kts | 282° |
| 2026-05-05 12:31 | 53.12164 | 3.14602 | 33973 ft | 474 kts | 280° |
| 2026-05-05 12:32 | 53.13466 | 3.04914 | 33971 ft | 474 kts | 280° |
| 2026-05-05 12:32 | 53.14888 | 2.94188 | 33968 ft | 474 kts | 279° |
| 2026-05-05 12:33 | 53.16363 | 2.83494 | 33964 ft | 476 kts | 286° |
| 2026-05-05 12:33 | 53.18917 | 2.73292 | 33979 ft | 478 kts | 290° |
| 2026-05-05 12:34 | 53.21535 | 2.63091 | 33981 ft | 478 kts | 290° |
| 2026-05-05 12:34 | 53.24141 | 2.52866 | 33985 ft | 479 kts | 290° |
| 2026-05-05 12:35 | 53.26735 | 2.42613 | 33992 ft | 480 kts | 290° |
| 2026-05-05 12:35 | 53.29324 | 2.32329 | 33989 ft | 480 kts | 290° |
| 2026-05-05 12:36 | 53.31921 | 2.21956 | 33995 ft | 481 kts | 290° |
| 2026-05-05 12:36 | 53.34480 | 2.11702 | 33996 ft | 481 kts | 290° |